createdAt,value
2017-07-02T09:36:26.403Z,994.28
2017-07-02T09:37:25.398Z,994.27
2017-07-02T09:38:25.400Z,994.24
2017-07-02T09:39:25.398Z,994.19
2017-07-02T09:40:25.400Z,994.2
2017-07-02T09:41:25.402Z,994.22
2017-07-02T09:42:25.404Z,994.25
2017-07-02T09:43:25.412Z,994.28
2017-07-02T09:44:25.417Z,994.27
2017-07-02T09:45:25.413Z,994.25
2017-07-02T09:46:25.416Z,994.26
2017-07-02T09:47:25.419Z,994.27
2017-07-02T09:48:25.423Z,994.25
2017-07-02T09:49:25.427Z,994.26
2017-07-02T09:50:25.431Z,994.29
2017-07-02T09:51:25.436Z,994.25
2017-07-02T09:52:25.440Z,994.26
2017-07-02T09:53:25.444Z,994.28
2017-07-02T09:54:25.446Z,994.26
2017-07-02T09:55:25.452Z,994.34
2017-07-02T09:56:25.456Z,994.28
2017-07-02T09:57:25.469Z,994.29
2017-07-02T09:58:25.462Z,994.27
2017-07-02T09:59:25.467Z,994.27
2017-07-02T10:00:25.483Z,994.23
2017-07-02T10:01:25.476Z,994.28
2017-07-02T10:02:25.490Z,994.25
2017-07-02T10:03:25.484Z,994.26
2017-07-02T10:04:25.489Z,994.27
2017-07-02T10:05:25.522Z,994.27
2017-07-02T10:06:25.498Z,994.28
2017-07-02T10:07:25.506Z,994.35
2017-07-02T10:08:25.506Z,994.33
2017-07-02T10:09:25.515Z,994.3
2017-07-02T10:10:25.515Z,994.33
2017-07-02T10:11:25.520Z,994.33
2017-07-02T10:12:25.525Z,994.29
2017-07-02T10:13:25.530Z,994.35
2017-07-02T10:14:25.533Z,994.32
2017-07-02T10:15:25.538Z,994.21
2017-07-02T10:16:25.542Z,994.24
2017-07-02T10:17:25.550Z,994.23
2017-07-02T10:18:25.554Z,994.27
2017-07-02T10:19:25.560Z,994.28
2017-07-02T10:20:25.558Z,994.25
2017-07-02T10:21:25.564Z,994.28
2017-07-02T10:22:27.522Z,994.24
2017-07-02T10:23:25.625Z,994.23
2017-07-02T10:24:25.580Z,994.21
2017-07-02T10:25:25.582Z,994.23
2017-07-02T10:26:25.588Z,994.22
2017-07-02T10:27:25.592Z,994.22
2017-07-02T10:28:25.597Z,994.24
2017-07-02T10:29:25.601Z,994.23
2017-07-02T10:30:25.605Z,994.27
2017-07-02T10:31:25.610Z,994.26
2017-07-02T10:32:25.621Z,994.31
2017-07-02T10:33:25.621Z,994.32
2017-07-02T10:34:25.626Z,994.3
2017-07-02T10:35:25.629Z,994.32
2017-07-02T10:36:25.637Z,994.32
2017-07-02T10:37:25.639Z,994.34
2017-07-02T10:38:25.643Z,994.31
2017-07-02T10:39:25.650Z,994.3
2017-07-02T10:40:25.655Z,994.31
2017-07-02T10:41:25.658Z,994.34
2017-07-02T10:42:25.663Z,994.33
2017-07-02T10:43:25.668Z,994.36
2017-07-02T10:44:25.675Z,994.34
2017-07-02T10:45:25.678Z,994.36
2017-07-02T10:46:25.684Z,994.35
2017-07-02T10:47:25.690Z,994.37
2017-07-02T10:48:25.696Z,994.38
2017-07-02T10:49:25.702Z,994.42
2017-07-02T10:50:25.706Z,994.4
2017-07-02T10:51:25.712Z,994.38
2017-07-02T10:52:25.716Z,994.34
2017-07-02T10:53:25.723Z,994.37
2017-07-02T10:54:25.728Z,994.37
2017-07-02T10:55:25.734Z,994.37
2017-07-02T10:56:25.738Z,994.41
2017-07-02T10:57:25.749Z,994.37
2017-07-02T10:58:25.755Z,994.34
2017-07-02T10:59:25.756Z,994.28
2017-07-02T11:00:25.760Z,994.31
2017-07-02T11:01:25.767Z,994.24
2017-07-02T11:02:25.779Z,994.25
2017-07-02T11:03:25.777Z,994.24
2017-07-02T11:04:25.812Z,994.2
2017-07-02T11:05:25.790Z,994.22
2017-07-02T11:06:25.796Z,994.16
2017-07-02T11:07:25.803Z,994.25
2017-07-02T11:08:25.807Z,994.32
2017-07-02T11:09:25.813Z,994.32
2017-07-02T11:10:25.819Z,994.33
2017-07-02T11:11:25.825Z,994.24
2017-07-02T11:12:25.854Z,994.24
2017-07-02T11:13:25.837Z,994.19
2017-07-02T11:14:26.017Z,994.17
2017-07-02T11:15:25.849Z,994.12
2017-07-02T11:16:25.860Z,994.1
2017-07-02T11:17:25.862Z,994.07
2017-07-02T11:18:25.870Z,994.03
2017-07-02T11:19:25.873Z,994.05
2017-07-02T11:20:25.877Z,994.03
2017-07-02T11:21:25.889Z,994.02
2017-07-02T11:22:25.920Z,994.04
2017-07-02T11:23:25.954Z,994.09
2017-07-02T11:24:25.899Z,994.11
2017-07-02T11:25:25.912Z,994.15
2017-07-02T11:26:25.917Z,994.19
2017-07-02T11:27:25.916Z,994.16
2017-07-02T11:28:25.970Z,994.19
2017-07-02T11:29:25.924Z,994.24
2017-07-02T11:30:25.931Z,994.24
2017-07-02T11:31:25.936Z,994.26
2017-07-02T11:32:25.941Z,994.3
2017-07-02T11:33:26.002Z,994.34
2017-07-02T11:34:25.964Z,994.33
2017-07-02T11:35:25.969Z,994.32
2017-07-02T11:36:25.965Z,994.3
2017-07-02T11:37:25.965Z,994.3
2017-07-02T11:38:27.272Z,994.35
2017-07-02T11:39:25.975Z,994.33
2017-07-02T11:40:25.986Z,994.36
2017-07-02T11:41:25.997Z,994.44
2017-07-02T11:42:25.990Z,994.42
2017-07-02T11:43:25.999Z,994.42
2017-07-02T11:44:25.999Z,994.4
2017-07-02T11:45:26.003Z,994.38
2017-07-02T11:46:26.011Z,994.4
2017-07-02T11:47:26.013Z,994.42
2017-07-02T11:48:26.024Z,994.43
2017-07-02T11:49:26.048Z,994.47
2017-07-02T11:50:26.033Z,994.47
2017-07-02T11:51:26.034Z,994.45
2017-07-02T11:52:26.039Z,994.46
2017-07-02T11:53:26.042Z,994.43
2017-07-02T11:54:26.046Z,994.46
2017-07-02T11:56:26.058Z,994.49
2017-07-02T11:57:26.091Z,994.51
2017-07-02T11:58:26.080Z,994.53
2017-07-02T11:59:26.072Z,994.57
2017-07-02T12:00:26.073Z,994.57
2017-07-02T12:01:26.078Z,994.56
2017-07-02T12:02:26.104Z,994.55
2017-07-02T12:03:26.086Z,994.51
2017-07-02T12:04:26.096Z,994.57
2017-07-02T12:05:26.110Z,994.57
2017-07-02T12:06:26.100Z,994.55
2017-07-02T12:07:26.106Z,994.61
2017-07-02T12:08:26.109Z,994.61
2017-07-02T12:09:26.113Z,994.61
2017-07-02T12:10:26.119Z,994.56
2017-07-02T12:11:26.144Z,994.61
2017-07-02T12:12:26.127Z,994.55
2017-07-02T12:13:26.132Z,994.58
2017-07-02T12:14:26.137Z,994.51
2017-07-02T12:15:26.141Z,994.52
2017-07-02T12:16:26.146Z,994.5
2017-07-02T12:17:26.152Z,994.51
2017-07-02T12:18:26.158Z,994.51
2017-07-02T12:19:26.161Z,994.53
2017-07-02T12:20:26.167Z,994.59
2017-07-02T12:21:26.170Z,994.65
2017-07-02T12:22:26.176Z,994.61
2017-07-02T12:23:26.181Z,994.55
2017-07-02T12:24:26.187Z,994.49
2017-07-02T12:25:26.231Z,994.54
2017-07-02T12:26:26.202Z,994.48
2017-07-02T12:27:26.200Z,994.49
2017-07-02T12:28:26.206Z,994.44
2017-07-02T12:29:26.211Z,994.43
2017-07-02T12:30:26.220Z,994.45
2017-07-02T12:31:26.221Z,994.44
2017-07-02T12:32:26.227Z,994.41
2017-07-02T12:33:26.236Z,994.43
2017-07-02T12:34:26.250Z,994.38
2017-07-02T12:35:26.245Z,994.38
2017-07-02T12:36:26.249Z,994.33
2017-07-02T12:37:26.254Z,994.31
2017-07-02T12:38:26.264Z,994.44
2017-07-02T12:39:26.271Z,994.43
2017-07-02T12:40:26.278Z,994.34
2017-07-02T12:41:26.283Z,994.39
2017-07-02T12:42:26.287Z,994.38
2017-07-02T12:43:26.288Z,994.4
2017-07-02T12:44:26.294Z,994.39
2017-07-02T12:45:26.300Z,994.34
2017-07-02T12:46:26.306Z,994.36
2017-07-02T12:47:26.313Z,994.34
2017-07-02T12:48:26.322Z,994.32
2017-07-02T12:49:26.323Z,994.23
2017-07-02T12:50:26.330Z,994.26
2017-07-02T12:51:26.352Z,994.16
2017-07-02T12:52:26.341Z,994.22
2017-07-02T12:53:26.346Z,994.24
2017-07-02T12:54:26.352Z,994.22
2017-07-02T12:55:26.359Z,994.22
2017-07-02T12:56:26.366Z,994.26
2017-07-02T12:57:26.368Z,994.3
2017-07-02T12:58:26.374Z,994.28
2017-07-02T12:59:26.380Z,994.43
2017-07-02T13:00:26.384Z,994.46
2017-07-02T13:01:26.389Z,994.44
2017-07-02T13:02:26.396Z,994.52
2017-07-02T13:03:26.404Z,994.5
2017-07-02T13:04:26.405Z,994.54
2017-07-02T13:05:26.413Z,994.52
2017-07-02T13:06:26.425Z,994.59
2017-07-02T13:07:26.428Z,994.64
2017-07-02T13:08:26.428Z,994.57
2017-07-02T13:09:28.236Z,994.53
2017-07-02T13:10:26.437Z,994.58
2017-07-02T13:11:26.441Z,994.52
2017-07-02T13:12:26.447Z,994.54
2017-07-02T13:13:26.452Z,994.48
2017-07-02T13:14:26.457Z,994.4
2017-07-02T13:15:26.547Z,994.46
2017-07-02T13:16:26.466Z,994.44
2017-07-02T13:17:26.471Z,994.4
2017-07-02T13:18:26.489Z,994.45
2017-07-02T13:19:26.491Z,994.4
2017-07-02T13:20:26.490Z,994.44
2017-07-02T13:21:26.492Z,994.45
2017-07-02T13:22:26.497Z,994.48
2017-07-02T13:23:26.502Z,994.43
2017-07-02T13:24:26.507Z,994.46
2017-07-02T13:25:26.516Z,994.46
2017-07-02T13:26:26.515Z,994.51
2017-07-02T13:27:26.521Z,994.55
2017-07-02T13:28:26.527Z,994.52
2017-07-02T13:29:26.530Z,994.52
2017-07-02T13:30:26.535Z,994.59
2017-07-02T13:31:26.558Z,994.57
2017-07-02T13:32:26.545Z,994.57
2017-07-02T13:33:26.548Z,994.57
2017-07-02T13:34:26.553Z,994.55
2017-07-02T13:35:26.557Z,994.55
2017-07-02T13:36:26.562Z,994.56
2017-07-02T13:37:26.568Z,994.59
2017-07-02T13:38:26.616Z,994.52
2017-07-02T13:39:26.576Z,994.52
2017-07-02T13:40:26.580Z,994.57
2017-07-02T13:41:26.586Z,994.54
2017-07-02T13:42:26.589Z,994.61
2017-07-02T13:43:26.592Z,994.57
2017-07-02T13:44:26.598Z,994.68
2017-07-02T13:45:26.602Z,994.69
2017-07-02T13:46:26.604Z,994.72
2017-07-02T13:47:26.609Z,994.76
2017-07-02T13:48:26.612Z,994.75
2017-07-02T13:49:26.616Z,994.71
2017-07-02T13:50:26.725Z,994.75
2017-07-02T13:51:26.624Z,994.73
2017-07-02T13:52:26.628Z,994.7
2017-07-02T13:53:26.636Z,994.68
2017-07-02T13:54:26.665Z,994.67
2017-07-02T13:55:26.645Z,994.67
2017-07-02T13:56:26.646Z,994.66
2017-07-02T13:57:26.658Z,994.66
2017-07-02T13:58:26.653Z,994.68
2017-07-02T13:59:26.660Z,994.68
2017-07-02T14:00:26.695Z,994.71
2017-07-02T14:01:26.665Z,994.69
2017-07-02T14:02:26.696Z,994.73
2017-07-02T14:03:26.705Z,994.72
2017-07-02T14:04:26.704Z,994.75
2017-07-02T14:05:26.706Z,994.73
2017-07-02T14:06:26.684Z,994.71
2017-07-02T14:07:26.705Z,994.71
2017-07-02T14:08:26.736Z,994.72
2017-07-02T14:09:26.730Z,994.71
2017-07-02T14:10:26.725Z,994.71
2017-07-02T14:11:26.728Z,994.7
2017-07-02T14:12:26.710Z,994.75
2017-07-02T14:13:26.717Z,994.78
2017-07-02T14:14:26.727Z,994.78
2017-07-02T14:15:26.742Z,994.75
2017-07-02T14:16:26.758Z,994.74
2017-07-02T14:17:26.733Z,994.75
2017-07-02T14:18:26.758Z,994.77
2017-07-02T14:19:26.739Z,994.8
2017-07-02T14:20:28.345Z,994.81
2017-07-02T14:21:26.743Z,994.82
2017-07-02T14:22:26.845Z,994.8
2017-07-02T14:23:26.778Z,994.83
2017-07-02T14:24:26.761Z,994.83
2017-07-02T14:25:26.992Z,994.82
2017-07-02T14:26:26.768Z,994.82
2017-07-02T14:27:26.770Z,994.8
2017-07-02T14:28:26.774Z,994.78
2017-07-02T14:29:26.777Z,994.81
2017-07-02T14:30:26.787Z,994.8
2017-07-02T14:31:26.783Z,994.79
2017-07-02T14:32:26.787Z,994.8
2017-07-02T14:33:26.794Z,994.77
2017-07-02T14:34:26.801Z,994.72
2017-07-02T14:35:26.801Z,994.71
2017-07-02T14:36:26.805Z,994.75
2017-07-02T14:37:26.812Z,994.76
2017-07-02T14:38:26.855Z,994.75
2017-07-02T14:39:26.819Z,994.78
2017-07-02T14:40:26.836Z,994.79
2017-07-02T14:41:26.827Z,994.76
2017-07-02T14:42:26.864Z,994.79
2017-07-02T14:43:26.835Z,994.77
2017-07-02T14:44:26.838Z,994.77
2017-07-02T14:45:26.852Z,994.79
2017-07-02T14:46:26.846Z,994.75
2017-07-02T14:47:26.851Z,994.78
2017-07-02T14:48:26.854Z,994.79
2017-07-02T14:49:26.858Z,994.78
2017-07-02T14:50:27.060Z,994.76
2017-07-02T14:51:26.869Z,994.81
2017-07-02T14:52:26.870Z,994.8
2017-07-02T14:53:26.873Z,994.8
2017-07-02T14:54:26.878Z,994.81
2017-07-02T14:55:26.912Z,994.79
2017-07-02T14:56:26.885Z,994.79
2017-07-02T14:57:26.889Z,994.8
2017-07-02T14:58:26.898Z,994.83
2017-07-02T14:59:26.902Z,994.82
2017-07-02T15:00:26.903Z,994.83
2017-07-02T15:01:26.907Z,994.92
2017-07-02T15:02:26.908Z,994.83
2017-07-02T15:03:26.913Z,994.91
2017-07-02T15:04:26.923Z,994.96
2017-07-02T15:05:26.920Z,994.93
2017-07-02T15:06:26.925Z,994.94
2017-07-02T15:07:26.929Z,994.95
2017-07-02T15:08:26.931Z,994.98
2017-07-02T15:09:26.936Z,994.99
2017-07-02T15:10:26.940Z,994.97
2017-07-02T15:11:28.598Z,994.94
2017-07-02T15:12:26.947Z,994.93
2017-07-02T15:13:26.951Z,994.93
2017-07-02T15:14:26.955Z,994.97
2017-07-02T15:15:26.974Z,994.94
2017-07-02T15:16:26.963Z,994.98
2017-07-02T15:17:26.970Z,995
2017-07-02T15:18:26.971Z,994.96
2017-07-02T15:19:26.975Z,994.99
2017-07-02T15:20:26.978Z,994.98
2017-07-02T15:21:26.984Z,994.98
2017-07-02T15:22:26.987Z,994.88
2017-07-02T15:23:26.990Z,994.92
2017-07-02T15:24:26.996Z,994.96
2017-07-02T15:25:26.998Z,994.94
2017-07-02T15:26:27.009Z,994.92
2017-07-02T15:27:27.013Z,994.94
2017-07-02T15:28:27.012Z,994.99
2017-07-02T15:29:27.012Z,994.98
2017-07-02T15:30:27.015Z,994.97
2017-07-02T15:31:27.026Z,995
2017-07-02T15:32:27.033Z,994.99
2017-07-02T15:33:27.059Z,995.07
2017-07-02T15:34:27.032Z,995.02
2017-07-02T15:35:27.033Z,995.05
2017-07-02T15:36:27.038Z,995.02
2017-07-02T15:37:27.039Z,995.02
2017-07-02T15:38:27.043Z,995.04
2017-07-02T15:39:27.047Z,995.05
2017-07-02T15:40:27.050Z,995.04
2017-07-02T15:41:27.053Z,995.03
2017-07-02T15:42:27.058Z,995.04
2017-07-02T15:43:27.061Z,995.05
2017-07-02T15:44:27.073Z,995.02
2017-07-02T15:45:27.068Z,995.07
2017-07-02T15:46:27.088Z,995.05
2017-07-02T15:47:27.088Z,995.03
2017-07-02T15:48:27.094Z,995.01
2017-07-02T15:49:27.091Z,995.03
2017-07-02T15:50:27.083Z,994.98
2017-07-02T15:51:27.092Z,995.04
2017-07-02T15:52:27.091Z,995.04
2017-07-02T15:53:27.097Z,995.04
2017-07-02T15:54:27.097Z,995.05
2017-07-02T15:55:27.101Z,995.04
2017-07-02T15:56:27.104Z,994.98
2017-07-02T15:57:27.109Z,995.01
2017-07-02T15:58:27.116Z,995.01
2017-07-02T15:59:27.115Z,994.98
2017-07-02T16:00:27.118Z,994.99
2017-07-02T16:01:27.126Z,994.98
2017-07-02T16:02:27.145Z,994.99
2017-07-02T16:03:27.129Z,995.02
2017-07-02T16:04:27.134Z,995.01
2017-07-02T16:05:27.137Z,995.03
2017-07-02T16:06:27.138Z,995.03
2017-07-02T16:07:27.144Z,995.02
2017-07-02T16:08:27.149Z,994.94
2017-07-02T16:09:27.158Z,994.96
2017-07-02T16:10:27.152Z,995.04
2017-07-02T16:11:27.159Z,995
2017-07-02T16:12:27.164Z,994.97
2017-07-02T16:13:27.167Z,994.96
2017-07-02T16:14:27.166Z,994.97
2017-07-02T16:15:27.169Z,994.96
2017-07-02T16:16:27.172Z,994.94
2017-07-02T16:17:27.175Z,994.97
2017-07-02T16:18:27.179Z,994.99
2017-07-02T16:19:27.183Z,994.98
2017-07-02T16:20:27.187Z,994.94
2017-07-02T16:21:27.188Z,994.91
2017-07-02T16:22:27.194Z,994.93
2017-07-02T16:23:27.198Z,994.96
2017-07-02T16:24:27.203Z,994.93
2017-07-02T16:25:27.202Z,994.97
2017-07-02T16:26:27.206Z,994.96
2017-07-02T16:27:27.213Z,995.02
2017-07-02T16:28:27.212Z,995.01
2017-07-02T16:29:27.216Z,994.99
2017-07-02T16:30:27.221Z,995.02
2017-07-02T16:31:27.223Z,995.04
2017-07-02T16:32:27.228Z,995.03
2017-07-02T16:33:27.230Z,994.98
2017-07-02T16:34:27.239Z,994.96
2017-07-02T16:35:27.247Z,995
2017-07-02T16:36:27.241Z,995.01
2017-07-02T16:37:27.246Z,995.01
2017-07-02T16:38:27.250Z,995.03
2017-07-02T16:39:27.252Z,995.07
2017-07-02T16:40:27.254Z,995.08
2017-07-02T16:41:27.259Z,995.04
2017-07-02T16:42:27.513Z,995.08
2017-07-02T16:43:27.267Z,995.04
2017-07-02T16:44:27.270Z,995.03
2017-07-02T16:45:27.275Z,995.06
2017-07-02T16:46:27.279Z,994.99
2017-07-02T16:47:27.281Z,994.98
2017-07-02T16:48:27.285Z,994.97
2017-07-02T16:49:27.289Z,995.02
2017-07-02T16:50:27.294Z,994.97
2017-07-02T16:51:27.296Z,995.02
2017-07-02T16:52:27.300Z,995.02
2017-07-02T16:53:27.303Z,995.03
2017-07-02T16:54:27.309Z,995.05
2017-07-02T16:55:27.312Z,995.03
2017-07-02T16:56:27.315Z,995.03
2017-07-02T16:57:29.172Z,995.04
2017-07-02T16:58:27.320Z,995.03
2017-07-02T16:59:27.326Z,995.04
2017-07-02T17:00:27.329Z,995.08
2017-07-02T17:01:27.332Z,995.1
2017-07-02T17:02:27.336Z,995.07
2017-07-02T17:03:27.340Z,995.1
2017-07-02T17:04:27.345Z,995.1
2017-07-02T17:05:27.347Z,995.1
2017-07-02T17:06:27.351Z,995.13
2017-07-02T17:07:27.393Z,995.13
2017-07-02T17:08:27.358Z,995.15
2017-07-02T17:09:27.395Z,995.14
2017-07-02T17:10:27.367Z,995.16
2017-07-02T17:11:27.369Z,995.14
2017-07-02T17:12:27.372Z,995.13
2017-07-02T17:13:27.376Z,995.13
2017-07-02T17:14:27.380Z,995.11
2017-07-02T17:15:27.384Z,995.16
2017-07-02T17:16:27.387Z,995.1
2017-07-02T17:17:27.390Z,995.12
2017-07-02T17:18:27.394Z,995.06
2017-07-02T17:19:27.399Z,995.07
2017-07-02T17:20:27.399Z,995.1
2017-07-02T17:21:27.404Z,995.16
2017-07-02T17:22:27.407Z,995.16
2017-07-02T17:23:27.412Z,995.12
2017-07-02T17:24:27.415Z,995.14
2017-07-02T17:25:27.419Z,995.17
2017-07-02T17:26:27.745Z,995.11
2017-07-02T17:27:27.424Z,995.17
2017-07-02T17:28:27.430Z,995.16
2017-07-02T17:29:27.606Z,995.17
2017-07-02T17:30:27.440Z,995.17
2017-07-02T17:31:27.438Z,995.21
2017-07-02T17:32:27.449Z,995.18
2017-07-02T17:33:27.445Z,995.19
2017-07-02T17:34:27.449Z,995.19
2017-07-02T17:35:27.451Z,995.26
2017-07-02T17:36:27.455Z,995.3
2017-07-02T17:37:27.472Z,995.23
2017-07-02T17:38:27.461Z,995.28
2017-07-02T17:39:27.464Z,995.29
2017-07-02T17:40:27.468Z,995.31
2017-07-02T17:41:27.470Z,995.29
2017-07-02T17:42:27.473Z,995.31
2017-07-02T17:43:27.477Z,995.27
2017-07-02T17:44:27.483Z,995.3
2017-07-02T17:45:27.482Z,995.33
2017-07-02T17:46:27.486Z,995.31
2017-07-02T17:47:27.490Z,995.33
2017-07-02T17:48:27.495Z,995.3
2017-07-02T17:49:27.496Z,995.33
2017-07-02T17:50:27.499Z,995.32
2017-07-02T17:51:27.502Z,995.38
2017-07-02T17:52:27.504Z,995.39
2017-07-02T17:53:27.509Z,995.37
2017-07-02T17:54:27.512Z,995.41
2017-07-02T17:55:27.514Z,995.42
2017-07-02T17:56:27.518Z,995.39
2017-07-02T17:57:27.523Z,995.47
2017-07-02T17:58:27.874Z,995.5
2017-07-02T17:59:27.535Z,995.5
2017-07-02T18:00:27.528Z,995.48
2017-07-02T18:01:27.535Z,995.47
2017-07-02T18:02:27.535Z,995.47
2017-07-02T18:03:27.540Z,995.48
2017-07-02T18:04:27.542Z,995.45
2017-07-02T18:05:27.544Z,995.48
2017-07-02T18:06:27.547Z,995.46
2017-07-02T18:07:27.551Z,995.51
2017-07-02T18:08:27.561Z,995.47
2017-07-02T18:09:27.556Z,995.47
2017-07-02T18:10:27.560Z,995.5
2017-07-02T18:11:27.562Z,995.5
2017-07-02T18:12:27.565Z,995.49
2017-07-02T18:13:27.919Z,995.46
2017-07-02T18:14:27.571Z,995.48
2017-07-02T18:15:27.579Z,995.53
2017-07-02T18:16:27.576Z,995.41
2017-07-02T18:17:27.580Z,995.43
2017-07-02T18:18:27.583Z,995.51
2017-07-02T18:19:27.586Z,995.5
2017-07-02T18:20:27.592Z,995.5
2017-07-02T18:21:27.602Z,995.49
2017-07-02T18:22:27.600Z,995.53
2017-07-02T18:23:27.598Z,995.53
2017-07-02T18:24:27.603Z,995.52
2017-07-02T18:25:27.606Z,995.54
2017-07-02T18:26:27.607Z,995.56
2017-07-02T18:27:27.608Z,995.56
2017-07-02T18:28:28.812Z,995.58
2017-07-02T18:29:27.616Z,995.53
2017-07-02T18:30:27.617Z,995.57
2017-07-02T18:31:27.621Z,995.56
2017-07-02T18:32:27.622Z,995.57
2017-07-02T18:33:27.626Z,995.51
2017-07-02T18:34:27.629Z,995.57
2017-07-02T18:35:27.631Z,995.59
2017-07-02T18:36:27.640Z,995.57
2017-07-02T18:37:27.638Z,995.62
2017-07-02T18:38:27.640Z,995.61
2017-07-02T18:39:27.645Z,995.64
2017-07-02T18:40:27.645Z,995.62
2017-07-02T18:41:27.697Z,995.63
2017-07-02T18:42:27.699Z,995.62
2017-07-02T18:43:27.653Z,995.64
2017-07-02T18:44:27.658Z,995.65
2017-07-02T18:45:27.657Z,995.7
2017-07-02T18:46:27.667Z,995.69
2017-07-02T18:47:27.663Z,995.71
2017-07-02T18:48:27.667Z,995.71
2017-07-02T18:49:27.675Z,995.73
2017-07-02T18:50:27.852Z,995.74
2017-07-02T18:51:27.677Z,995.73
2017-07-02T18:52:27.678Z,995.75
2017-07-02T18:53:27.678Z,995.7
2017-07-02T18:54:27.681Z,995.72
2017-07-02T18:55:27.682Z,995.71
2017-07-02T18:56:27.688Z,995.71
2017-07-02T18:57:27.687Z,995.77
2017-07-02T18:58:27.691Z,995.78
2017-07-02T18:59:27.693Z,995.81
2017-07-02T19:00:27.696Z,995.86
2017-07-02T19:01:27.699Z,995.86
2017-07-02T19:02:27.700Z,995.84
2017-07-02T19:03:27.703Z,995.84
2017-07-02T19:04:27.704Z,995.86
2017-07-02T19:05:27.707Z,995.83
2017-07-02T19:06:27.711Z,995.89
2017-07-02T19:07:27.726Z,995.94
2017-07-02T19:08:27.737Z,995.9
2017-07-02T19:09:27.746Z,995.91
2017-07-02T19:10:27.721Z,995.94
2017-07-02T19:11:27.723Z,996.01
2017-07-02T19:12:27.730Z,996
2017-07-02T19:13:27.728Z,995.98
2017-07-02T19:14:27.738Z,996.05
2017-07-02T19:15:27.746Z,996.06
2017-07-02T19:16:27.739Z,996.07
2017-07-02T19:17:27.787Z,996.06
2017-07-02T19:18:27.736Z,996.07
2017-07-02T19:19:27.750Z,996.15
2017-07-02T19:20:27.741Z,996.13
2017-07-02T19:21:27.748Z,996.19
2017-07-02T19:22:27.746Z,996.13
2017-07-02T19:23:27.755Z,996.15
2017-07-02T19:24:27.754Z,996.15
2017-07-02T19:25:27.753Z,996.15
2017-07-02T19:26:27.755Z,996.2
2017-07-02T19:27:27.764Z,996.2
2017-07-02T19:28:27.761Z,996.21
2017-07-02T19:29:27.763Z,996.18
2017-07-02T19:30:27.774Z,996.22
2017-07-02T19:31:27.782Z,996.27
2017-07-02T19:32:27.771Z,996.27
2017-07-02T19:33:27.771Z,996.28
2017-07-02T19:34:27.773Z,996.31
2017-07-02T19:35:27.777Z,996.35
2017-07-02T19:36:27.776Z,996.36
2017-07-02T19:37:27.820Z,996.37
2017-07-02T19:38:27.780Z,996.36
2017-07-02T19:39:27.784Z,996.42
2017-07-02T19:40:27.785Z,996.51
2017-07-02T19:41:27.787Z,996.47
2017-07-02T19:42:27.790Z,996.45
2017-07-02T19:43:27.794Z,996.5
2017-07-02T19:44:28.994Z,996.49
2017-07-02T19:45:27.796Z,996.54
2017-07-02T19:46:27.810Z,996.54
2017-07-02T19:47:27.798Z,996.51
2017-07-02T19:48:27.810Z,996.51
2017-07-02T19:49:27.809Z,996.55
2017-07-02T19:50:27.806Z,996.59
2017-07-02T19:51:27.811Z,996.6
2017-07-02T19:52:27.817Z,996.58
2017-07-02T19:53:27.814Z,996.57
2017-07-02T19:54:27.814Z,996.57
2017-07-02T19:55:27.816Z,996.56
2017-07-02T19:56:27.815Z,996.54
2017-07-02T19:57:27.815Z,996.6
2017-07-02T19:58:27.818Z,996.59
2017-07-02T19:59:27.827Z,996.59
2017-07-02T20:00:27.829Z,996.6
